Time;durP1;ratioP1;P1;durP2;ratioP2;P2;SDS_P1;SDS_P2;PMS_P1;PMS_P2;Temp;Humidity;BMP_temperature;BMP_pressure;BME280_temperature;BME280_humidity;BME280_pressure;Samples;Min_cycle;Max_cycle;Signal;HPM_P1;HPM_P2
2021/09/05 00:03:46;;;;;;;16.90;12.20;;;11.00;99.90;;;;;;20986052;28;20033;-48
2021/09/05 00:13:48;;;;;;;17.50;12.05;;;10.70;99.90;;;;;;20985554;28;20378;-52
2021/09/05 00:23:51;;;;;;;15.63;10.43;;;10.80;99.90;;;;;;20985072;28;20036;-52
2021/09/05 00:33:53;;;;;;;15.80;9.73;;;10.90;99.90;;;;;;20996454;28;20041;-49
2021/09/05 00:43:57;;;;;;;13.70;8.80;;;11.00;99.90;;;;;;20998721;28;20098;-50
2021/09/05 00:54:00;;;;;;;15.13;10.75;;;10.80;99.90;;;;;;20998745;28;20434;-50
2021/09/05 01:04:03;;;;;;;16.20;11.18;;;10.60;99.90;;;;;;20997762;28;20029;-48
2021/09/05 01:14:07;;;;;;;16.05;10.40;;;10.60;99.90;;;;;;20996920;28;20032;-49
2021/09/05 01:24:13;;;;;;;14.77;9.93;;;10.50;99.90;;;;;;20994735;28;20040;-52
2021/09/05 01:34:35;;;;;;;16.15;10.10;;;10.60;99.90;;;;;;20964601;28;20432;-50
2021/09/05 01:44:56;;;;;;;30.10;17.17;;;10.40;99.90;;;;;;20910789;28;20099;-50
2021/09/05 01:55:16;;;;;;;14.95;8.80;;;10.20;99.90;;;;;;20911154;28;20045;-49
2021/09/05 02:05:36;;;;;;;29.77;18.20;;;10.20;99.90;;;;;;20909909;28;20036;-51
2021/09/05 02:16:01;;;;;;;13.35;8.15;;;10.20;99.90;;;;;;20909309;28;20041;-53
2021/09/05 02:26:21;;;;;;;11.82;6.85;;;10.20;99.90;;;;;;20907278;28;20033;-49
2021/09/05 02:36:42;;;;;;;14.70;8.10;;;10.20;99.90;;;;;;20924093;28;20088;-53
2021/09/05 02:47:19;;;;;;;10.05;6.75;;;10.10;99.90;;;;;;20988179;28;20106;-48
2021/09/05 02:57:44;;;;;;;8.80;6.22;;;10.10;99.90;;;;;;20984253;28;20044;-50
2021/09/05 03:08:05;;;;;;;6.77;4.43;;;10.00;99.90;;;;;;20988602;28;20033;-50
2021/09/05 03:18:25;;;;;;;6.75;4.15;;;9.80;99.90;;;;;;20987847;28;20036;-48
2021/09/05 03:28:59;;;;;;;7.85;4.38;;;9.70;99.90;;;;;;20964473;28;20559;-49
2021/09/05 03:39:21;;;;;;;5.55;4.00;;;9.60;99.90;;;;;;20979146;28;20041;-50
2021/09/05 03:49:49;;;;;;;6.72;4.43;;;9.50;99.90;;;;;;20985405;28;20028;-52
2021/09/05 03:59:51;;;;;;;7.80;4.05;;;9.50;99.90;;;;;;20986188;28;20460;-50
2021/09/05 04:10:11;;;;;;;6.80;2.88;;;9.50;99.90;;;;;;20999908;28;20040;-48
2021/09/05 04:20:13;;;;;;;6.38;3.63;;;9.40;99.90;;;;;;21001324;28;20094;-53
2021/09/05 04:30:14;;;;;;;4.40;2.50;;;9.30;99.90;;;;;;21000297;28;20453;-50
2021/09/05 04:40:16;;;;;;;5.35;2.85;;;9.20;99.90;;;;;;20999077;28;20094;-48
2021/09/05 04:50:18;;;;;;;5.68;3.75;;;9.20;99.90;;;;;;20997298;28;20094;-52
2021/09/05 05:00:20;;;;;;;5.97;3.85;;;9.20;99.90;;;;;;20998146;28;20071;-47
2021/09/05 05:10:23;;;;;;;4.40;2.55;;;9.30;99.90;;;;;;20997544;28;20081;-48
2021/09/05 05:20:25;;;;;;;5.00;3.50;;;9.40;99.90;;;;;;20996287;28;20079;-50
2021/09/05 05:30:27;;;;;;;5.85;3.30;;;9.90;99.90;;;;;;20996108;28;20150;-50
2021/09/05 05:40:33;;;;;;;6.22;4.07;;;10.40;99.90;;;;;;20995011;28;20045;-50
2021/09/05 05:50:34;;;;;;;7.32;5.20;;;10.50;99.90;;;;;;20993965;28;20082;-50
2021/09/05 06:00:38;;;;;;;6.75;4.43;;;10.60;99.90;;;;;;20993235;28;20033;-53
2021/09/05 06:10:40;;;;;;;5.95;3.72;;;10.80;99.90;;;;;;20992168;28;20032;-48
2021/09/05 06:20:42;;;;;;;5.50;3.58;;;11.30;99.90;;;;;;20973109;28;20036;-53
2021/09/05 06:30:44;;;;;;;3.25;2.15;;;11.70;99.90;;;;;;20989855;28;20040;-49
2021/09/05 06:40:46;;;;;;;6.25;3.53;;;11.80;99.90;;;;;;20989496;28;20040;-52
2021/09/05 06:50:49;;;;;;;8.35;4.88;;;12.20;99.90;;;;;;20989917;28;20492;-53
2021/09/05 07:00:54;;;;;;;9.90;4.18;;;13.40;99.90;;;;;;20988473;28;20102;-48
2021/09/05 07:10:55;;;;;;;6.07;4.20;;;14.50;99.90;;;;;;20987445;28;20043;-53
2021/09/05 07:20:57;;;;;;;6.25;3.75;;;15.60;99.90;;;;;;20988015;28;20467;-49
2021/09/05 07:31:00;;;;;;;6.28;4.22;;;16.80;99.90;;;;;;20985989;28;20378;-50
2021/09/05 07:41:04;;;;;;;5.55;3.83;;;17.80;99.90;;;;;;20998691;28;20482;-50
2021/09/05 07:51:06;;;;;;;5.70;3.75;;;18.50;99.90;;;;;;21005836;28;20028;-53
2021/09/05 08:01:07;;;;;;;5.22;3.90;;;19.00;99.90;;;;;;21004414;28;20040;-49
2021/09/05 08:11:09;;;;;;;7.05;3.67;;;19.50;99.90;;;;;;21005040;28;20097;-49
2021/09/05 08:21:11;;;;;;;6.80;4.78;;;20.00;99.90;;;;;;20992920;28;20049;-51
2021/09/05 08:31:14;;;;;;;7.25;4.05;;;20.00;98.60;;;;;;20973922;28;20029;-51
2021/09/05 08:41:17;;;;;;;8.25;4.00;;;21.00;99.20;;;;;;20991433;28;20428;-54
2021/09/05 08:51:19;;;;;;;7.03;4.43;;;21.30;97.90;;;;;;20941359;28;20475;-54
2021/09/05 09:01:28;;;;;;;9.40;5.03;;;21.50;97.10;;;;;;20983137;28;20021;-55
2021/09/05 09:11:53;;;;;;;7.80;4.88;;;21.90;95.00;;;;;;21000020;28;20025;-51
2021/09/05 09:21:56;;;;;;;6.55;4.82;;;22.40;95.30;;;;;;20955284;28;20045;-50
2021/09/05 09:32:00;;;;;;;5.90;4.38;;;22.80;93.60;;;;;;21000445;28;20040;-55
2021/09/05 09:42:03;;;;;;;9.93;4.38;;;22.90;92.80;;;;;;21003554;28;20033;-48
2021/09/05 09:52:05;;;;;;;7.40;4.80;;;22.50;93.90;;;;;;20979938;28;20029;-51
2021/09/05 10:02:29;;;;;;;7.05;4.97;;;22.50;93.70;;;;;;20992908;28;20075;-49
2021/09/05 10:12:32;;;;;;;9.02;5.75;;;22.80;92.80;;;;;;20993025;28;20048;-50
2021/09/05 10:22:34;;;;;;;15.80;5.18;;;22.00;94.40;;;;;;20964073;28;20367;-53
2021/09/05 10:32:48;;;;;;;13.77;5.38;;;22.80;93.70;;;;;;20944700;28;20087;-51
2021/09/05 10:42:59;;;;;;;7.85;5.28;;;23.00;94.60;;;;;;20974104;28;20049;-49
2021/09/05 10:53:23;;;;;;;7.63;5.15;;;24.40;92.00;;;;;;20982512;28;20052;-54
2021/09/05 11:03:25;;;;;;;8.63;5.90;;;24.10;91.90;;;;;;20988192;28;20405;-47
2021/09/05 11:14:04;;;;;;;7.70;4.97;;;23.60;91.70;;;;;;20952342;28;20478;-48
2021/09/05 11:24:06;;;;;;;14.67;6.20;;;22.90;93.10;;;;;;20935553;28;20041;-54
2021/09/05 11:34:11;;;;;;;8.18;5.32;;;24.20;92.20;;;;;;20958163;28;20036;-49
2021/09/05 11:44:25;;;;;;;6.68;5.25;;;24.80;91.00;;;;;;20965567;28;20052;-52
2021/09/05 11:54:27;;;;;;;8.68;6.28;;;24.90;87.80;;;;;;20927593;28;20040;-49
2021/09/05 12:04:30;;;;;;;9.63;5.30;;;24.30;88.20;;;;;;20936186;28;20054;-51
2021/09/05 12:14:34;;;;;;;6.65;4.40;;;24.10;90.40;;;;;;21000075;28;20032;-52
2021/09/05 12:24:37;;;;;;;7.22;4.88;;;24.40;90.60;;;;;;20977217;28;20064;-52
2021/09/05 12:34:45;;;;;;;6.45;5.00;;;24.90;85.30;;;;;;20961303;28;20032;-55
2021/09/05 12:44:51;;;;;;;10.75;5.80;;;23.60;88.40;;;;;;20988799;28;20086;-46
2021/09/05 12:54:52;;;;;;;8.23;4.85;;;23.30;89.30;;;;;;20932739;28;20033;-45
2021/09/05 13:04:56;;;;;;;8.07;5.18;;;23.80;90.00;;;;;;20987854;28;20029;-55
2021/09/05 13:14:58;;;;;;;10.38;4.80;;;24.60;86.90;;;;;;20965834;28;20037;-51
2021/09/05 13:25:00;;;;;;;8.88;5.47;;;24.20;90.10;;;;;;20950236;28;20025;-54
2021/09/05 13:35:03;;;;;;;6.70;4.55;;;23.60;87.60;;;;;;20966745;28;20056;-53
2021/09/05 13:45:05;;;;;;;53.10;8.27;;;22.50;89.50;;;;;;20969328;28;20121;-54
2021/09/05 13:55:08;;;;;;;10.68;6.70;;;21.00;94.00;;;;;;21001849;28;20359;-53
2021/09/05 14:05:13;;;;;;;14.77;8.48;;;18.60;99.90;;;;;;21015063;28;20036;-49
2021/09/05 14:15:22;;;;;;;10.18;7.38;;;16.60;99.90;;;;;;21004238;28;20044;-49
2021/09/05 14:25:25;;;;;;;15.48;9.45;;;16.10;99.90;;;;;;21006188;28;20120;-50
2021/09/05 14:56:15;;;;;;;11.02;7.05;;;15.40;99.90;;;;;;20944813;28;20880;-47
2021/09/05 15:16:26;;;;;;;8.80;6.10;;;16.20;99.90;;;;;;20989268;28;20036;-48
2021/09/05 15:26:31;;;;;;;9.82;6.75;;;16.70;99.90;;;;;;20989599;28;20028;-52
2021/09/05 15:57:25;;;;;;;13.73;8.50;;;15.60;99.90;;;;;;20989675;28;20036;-51
2021/09/05 16:17:50;;;;;;;12.50;8.63;;;15.30;99.90;;;;;;21004029;28;20040;-52
2021/09/05 16:27:52;;;;;;;14.35;9.65;;;15.10;99.90;;;;;;21001917;28;20053;-47
2021/09/05 16:48:08;;;;;;;11.98;7.35;;;14.90;99.90;;;;;;20999973;28;20028;-54
2021/09/05 16:58:10;;;;;;;15.32;10.20;;;14.70;99.90;;;;;;20998905;28;20543;-48
2021/09/05 17:08:13;;;;;;;14.57;9.10;;;14.30;99.90;;;;;;20998006;28;20508;-51
2021/09/05 17:18:17;;;;;;;18.48;9.10;;;14.10;99.90;;;;;;20997200;28;20028;-48
2021/09/05 17:28:19;;;;;;;14.48;9.50;;;13.80;99.90;;;;;;20997170;28;20097;-49
2021/09/05 17:38:25;;;;;;;14.70;10.05;;;13.50;99.90;;;;;;20997851;28;20245;-50
2021/09/05 17:48:34;;;;;;;16.70;11.07;;;13.20;99.90;;;;;;20996089;28;20478;-50
2021/09/05 17:58:40;;;;;;;14.00;9.55;;;13.00;99.90;;;;;;20994867;28;20079;-48
2021/09/05 18:08:42;;;;;;;18.25;11.45;;;12.80;99.90;;;;;;20995942;28;20037;-49
2021/09/05 18:18:45;;;;;;;15.80;10.00;;;12.70;99.90;;;;;;20994711;28;20089;-49
2021/09/05 18:28:47;;;;;;;17.83;10.88;;;12.50;99.90;;;;;;20995533;28;20029;-50
2021/09/05 18:38:50;;;;;;;18.77;12.02;;;12.30;99.90;;;;;;20994901;28;20386;-50
2021/09/05 18:48:51;;;;;;;25.83;11.88;;;12.00;99.90;;;;;;20992638;28;20477;-50
2021/09/05 18:58:53;;;;;;;23.33;13.30;;;11.70;99.90;;;;;;20991191;28;20034;-53
2021/09/05 19:08:56;;;;;;;20.60;13.13;;;11.60;99.90;;;;;;20989172;28;20355;-52
2021/09/05 19:18:59;;;;;;;33.72;13.15;;;11.60;99.90;;;;;;20987376;28;20106;-49
2021/09/05 19:29:02;;;;;;;15.07;10.00;;;11.40;99.90;;;;;;20990035;28;20036;-48
2021/09/05 19:39:05;;;;;;;14.52;9.52;;;11.40;99.90;;;;;;20990560;28;20052;-53
2021/09/05 19:49:07;;;;;;;12.15;8.23;;;11.20;99.90;;;;;;20991403;28;20082;-54
2021/09/05 19:59:10;;;;;;;13.50;8.57;;;11.10;99.90;;;;;;20990791;28;20358;-53
2021/09/05 20:09:12;;;;;;;12.98;8.23;;;11.00;99.90;;;;;;20989462;28;20054;-52
2021/09/05 20:19:15;;;;;;;11.63;7.50;;;11.00;99.90;;;;;;20988548;28;20036;-51
2021/09/05 20:29:20;;;;;;;11.35;7.80;;;11.00;99.90;;;;;;20986065;28;20363;-52
2021/09/05 20:39:24;;;;;;;12.80;7.68;;;11.00;99.90;;;;;;20983782;28;20045;-54
2021/09/05 20:49:27;;;;;;;14.43;9.45;;;10.90;99.90;;;;;;20993943;28;20032;-49
2021/09/05 20:59:30;;;;;;;11.80;8.60;;;10.90;99.90;;;;;;20998095;28;20078;-54
2021/09/05 21:09:32;;;;;;;12.15;8.55;;;11.00;99.90;;;;;;20997162;28;20032;-54
2021/09/05 21:19:33;;;;;;;12.88;8.07;;;11.10;99.90;;;;;;20994797;28;20039;-54
2021/09/05 21:29:35;;;;;;;12.82;9.05;;;11.30;99.90;;;;;;20996077;28;20482;-51
2021/09/05 21:39:37;;;;;;;12.63;7.28;;;11.40;99.90;;;;;;20995160;28;20102;-49
2021/09/05 21:49:41;;;;;;;13.52;7.70;;;11.60;99.90;;;;;;20993382;28;20076;-53
2021/09/05 21:59:43;;;;;;;9.27;6.28;;;11.60;99.90;;;;;;20993186;28;20032;-51
2021/09/05 22:09:44;;;;;;;12.68;8.00;;;11.70;99.90;;;;;;20992603;28;20075;-52
2021/09/05 22:19:47;;;;;;;11.73;7.10;;;11.50;99.90;;;;;;20991624;28;20036;-54
2021/09/05 22:29:49;;;;;;;9.38;6.20;;;11.60;99.90;;;;;;20991223;28;20028;-51
2021/09/05 22:39:51;;;;;;;11.45;6.70;;;11.60;99.90;;;;;;20990506;28;20456;-51
2021/09/05 22:49:53;;;;;;;10.02;6.38;;;11.40;99.90;;;;;;20991039;28;20029;-53
2021/09/05 22:59:55;;;;;;;8.77;5.50;;;11.50;99.90;;;;;;20990609;28;20033;-53
2021/09/05 23:09:57;;;;;;;11.25;6.47;;;11.70;99.90;;;;;;20989201;28;20109;-50
2021/09/05 23:19:58;;;;;;;6.82;4.88;;;11.20;99.90;;;;;;20988042;28;20045;-52
2021/09/05 23:30:01;;;;;;;9.25;5.90;;;10.90;99.90;;;;;;20985850;28;20086;-52
2021/09/05 23:40:05;;;;;;;8.07;5.60;;;10.70;99.90;;;;;;20987708;28;20045;-51
2021/09/05 23:50:08;;;;;;;8.65;4.85;;;10.50;99.90;;;;;;20987879;28;20028;-54
